Aérodrome :
LOGIN :

S'inscrire | Disclaimer

   EN    FR    IT 

 










Légende :    VFR   VFR Marginal   IFR   IFR Intensif   IFR Très Intensif
Visi : 
Plafond : 
>= 8 km
>= 3000ft
5 à 8 km
1000 à 3000 ft
1500m à 5 km
500 à 1000 ft
800 à 1500m
200 à 500 ft
< 800m
< 200 ft
Symboles :   Orages  Brouillard  Fortes neiges  Fortes précipitations  Vent > 20 kt
SIGMETs :   Divers  Orages  Givrage  Turbulence  Onde Orograph.  Cendres Volcan.







- Altitude de l'aérodrome : 1910 ft
- Code IATA : RDZ
- Voir les cartes d'approche


LFCR - Rodez

DERNIER METAR :
  • 140800Z AUTO 26006KT 9999 OVC007 07/06 Q1014 TEMPO 4000 -RADZ OVC003

METARs EXPIRÉS :
  • 140730Z AUTO 27006KT 9999 BKN008 OVC012 07/06 Q1014 TEMPO 4000 -RADZ OVC003
  • 140700Z AUTO 27006KT 9999 BKN013 BKN021 OVC047 06/05 Q1014 TEMPO 4000 -RADZ OVC003
  • 140630Z AUTO 28013KT 9999 -RA FEW007 SCT011 BKN033 06/06 Q1013 TEMPO 4000 -RADZ OVC003
  • 140600Z AUTO 29011KT 260V320 6000 RA BKN007 BKN012 OVC017 07/07 Q1013 TEMPO 4000 -RADZ OVC003
  • 140530Z AUTO 28008KT 9999 OVC008 07/07 Q1013 TEMPO 4000 -RADZ OVC003

TAF TAF LFCR
Valide du 14 à 06h jusqu'au 15 à 06h UTC


140500Z 1406/1506 27010KT 9999 OVC006
TEMPO 1406/1409 4000 -RADZ OVC003
BECMG 1410/1412 BKN012
BECMG 1412/1414 BKN020
PROB40
TEMPO 1414/1501 24016G30KT 3000 -SHRA BKN006 SCT018TCU
BECMG 1501/1503 3000 -RA BKN012
TEMPO 1503/1506 27015G25KT 1200 +RA OVC006 SCT010CB
Pas de NOTAMs connus pour ce terrain.



MET'MAP, la Météo Aéronautique d'un coup d'oeil ! - Copyright ORBIFLY Décembre 2007 - Disclaimer

ORBIFLY MET'MAP TEAM :

Programmation & Développement : Alexandra Zaïnal
Conception & Développement : Baudouin d'Aumeries
Co-Programmation & Développement : Marc-Olivier Méhu
Soutien technique & logistique : Manuel Goepfert

Contact : metmap@orbifly.com




SOURCES & CREDITS :

   NOAA